Weather at Fort Lewis Auxiliary Airfield Number 2 [CLOSED]

Public forecast

Using degrees Fahrenheit for public forecast. Weather courtesy of forecast.io.

Closest aviation weather report (METAR) to Fort Lewis Auxiliary Airfield Number 2

Closest report is Gray Army Air Field, 3.2 nm (5.9 km) NNW.

2024/06/22 06:55 (retrieved 31 minutes ago)

KGRF 220655Z AUTO 28003KT 10SM CLR 17/09 A2990 RMK AO2 SLP127 T01710090

Closest aviation forecast (TAF) to Fort Lewis Auxiliary Airfield Number 2

Closest forecast is Gray Army Air Field, 3.2 nm (5.9 km) NNW.

2024/06/22 05:00 (retrieved 2 hours ago)

TAF KGRF 220500Z 2205/2311 VRB06KT 9999 FEW140 BKN180 QNH2987INS BECMG 2300/2301 24010G15KT 9999 BKN045 QNH2986INS BECMG 2304/2305 24012G20KT 9999 BKN020 OVC035 QNH2988INS TX25/2223Z TN13/2213Z